createdAt,value
2019-03-19T00:01:51.092Z,59.96
2019-03-19T00:04:18.023Z,59.87
2019-03-19T00:06:44.790Z,59.68
2019-03-19T00:09:11.517Z,59.71
2019-03-19T00:11:37.907Z,59.83
2019-03-19T00:14:04.431Z,59.71
2019-03-19T00:16:30.855Z,59.75
2019-03-19T00:18:57.153Z,59.83
2019-03-19T00:21:23.578Z,59.86
2019-03-19T00:23:49.932Z,59.92
2019-03-19T00:26:16.651Z,59.43
2019-03-19T00:28:43.103Z,59.73
2019-03-19T00:31:09.513Z,59.94
2019-03-19T00:33:35.937Z,60.06
2019-03-19T00:36:02.415Z,60.09
2019-03-19T00:38:28.911Z,60.13
2019-03-19T00:40:55.376Z,59.96
2019-03-19T00:43:21.875Z,60.58
2019-03-19T00:45:48.200Z,60.08
2019-03-19T00:48:14.668Z,59.93
2019-03-19T00:50:41.177Z,60.48
2019-03-19T00:53:07.462Z,60.26
2019-03-19T00:55:40.613Z,59.88
2019-03-19T00:58:02.163Z,60.29
2019-03-19T01:00:28.603Z,59.85
2019-03-19T01:02:54.987Z,60.06
2019-03-19T01:05:21.614Z,59.70
2019-03-19T01:07:48.020Z,60.13
2019-03-19T01:10:17.231Z,60.06
2019-03-19T01:12:42.874Z,60.03
2019-03-19T01:15:12.681Z,59.75
2019-03-19T01:17:38.992Z,60.08
2019-03-19T01:20:10.402Z,60.35
2019-03-19T01:22:36.935Z,60.81
2019-03-19T01:25:07.079Z,61.77
2019-03-19T01:27:34.165Z,61.86
2019-03-19T01:30:00.727Z,62.31
2019-03-19T01:32:27.127Z,62.76
2019-03-19T01:34:53.796Z,62.92
2019-03-19T01:37:20.516Z,62.85
2019-03-19T01:39:46.900Z,62.79
2019-03-19T01:42:13.340Z,63.30
2019-03-19T01:44:39.985Z,63.31
2019-03-19T01:47:06.393Z,63.66
2019-03-19T01:49:32.679Z,63.32
2019-03-19T01:51:59.278Z,63.82
2019-03-19T01:54:25.691Z,64.17
2019-03-19T01:56:52.487Z,64.54
2019-03-19T01:59:18.965Z,64.58
2019-03-19T02:01:45.303Z,64.05
2019-03-19T02:04:11.737Z,64.53
2019-03-19T02:06:38.146Z,64.76
2019-03-19T02:09:05.551Z,65.29
2019-03-19T02:11:32.138Z,65.25
2019-03-19T02:13:58.840Z,65.28
2019-03-19T02:16:25.323Z,64.82
2019-03-19T02:18:51.726Z,64.72
2019-03-19T02:21:18.142Z,64.63
2019-03-19T02:23:44.707Z,64.83
2019-03-19T02:26:16.339Z,64.84
2019-03-19T02:28:40.075Z,64.80
2019-03-19T02:31:06.844Z,64.85
2019-03-19T02:33:33.362Z,64.83
2019-03-19T02:35:59.779Z,64.99
2019-03-19T02:38:26.167Z,64.83
2019-03-19T02:40:52.784Z,65.36
2019-03-19T02:43:22.712Z,65.32
2019-03-19T02:45:48.073Z,65.23
2019-03-19T02:48:14.560Z,65.17
2019-03-19T02:50:41.100Z,65.90
2019-03-19T02:53:07.726Z,66.22
2019-03-19T02:55:34.286Z,66.15
2019-03-19T02:58:00.929Z,66.47
2019-03-19T03:00:27.360Z,66.35
2019-03-19T03:02:54.046Z,66.29
2019-03-19T03:05:21.152Z,66.04
2019-03-19T03:07:47.949Z,66.48
2019-03-19T03:10:14.893Z,66.54
2019-03-19T03:12:41.681Z,66.45
2019-03-19T03:15:12.830Z,66.60
2019-03-19T03:17:39.557Z,66.65
2019-03-19T03:20:12.997Z,66.64
2019-03-19T03:22:39.617Z,66.77
2019-03-19T03:25:10.343Z,66.73
2019-03-19T03:27:36.956Z,66.76
2019-03-19T03:30:11.992Z,66.74
2019-03-19T03:32:38.931Z,66.58
2019-03-19T03:35:08.599Z,66.44
2019-03-19T03:37:35.075Z,66.83
2019-03-19T03:40:05.040Z,66.81
2019-03-19T03:42:31.459Z,66.79
2019-03-19T03:44:58.179Z,66.79
2019-03-19T03:47:24.693Z,66.89
2019-03-19T03:49:51.512Z,67.10
2019-03-19T03:52:18.000Z,66.77
2019-03-19T03:54:44.590Z,66.73
2019-03-19T03:57:11.212Z,66.73
2019-03-19T03:59:37.699Z,66.72
2019-03-19T04:02:04.521Z,67.02
2019-03-19T04:04:30.914Z,67.15
2019-03-19T04:06:57.615Z,67.17
2019-03-19T04:09:24.204Z,67.28
2019-03-19T04:11:50.979Z,66.81
2019-03-19T04:14:17.692Z,66.90
2019-03-19T04:16:44.321Z,66.82
2019-03-19T04:19:10.802Z,66.78
2019-03-19T04:21:37.127Z,66.64
2019-03-19T04:24:04.043Z,66.79
2019-03-19T04:26:30.441Z,66.51
2019-03-19T04:28:56.834Z,66.57
2019-03-19T04:31:23.351Z,67.29
2019-03-19T04:33:49.752Z,67.27
2019-03-19T04:36:16.263Z,67.22
2019-03-19T04:38:42.682Z,67.08
2019-03-19T04:41:09.579Z,67.48
2019-03-19T04:43:35.975Z,67.76
2019-03-19T04:46:02.730Z,67.87
2019-03-19T04:48:29.119Z,66.99
2019-03-19T04:50:55.434Z,67.10
2019-03-19T04:53:24.136Z,67.08
2019-03-19T04:55:50.263Z,67.10
2019-03-19T04:58:16.855Z,67.78
2019-03-19T05:00:43.347Z,67.30
2019-03-19T05:03:09.687Z,67.76
2019-03-19T05:05:36.494Z,67.70
2019-03-19T05:08:03.228Z,68.18
2019-03-19T05:10:29.623Z,67.61
2019-03-19T05:12:56.067Z,68.11
2019-03-19T05:15:22.459Z,68.29
2019-03-19T05:17:49.141Z,68.37
2019-03-19T05:20:16.844Z,68.69
2019-03-19T05:22:43.450Z,68.40
2019-03-19T05:25:10.837Z,68.33
2019-03-19T05:27:37.976Z,68.52
2019-03-19T05:30:13.226Z,68.41
2019-03-19T05:32:39.651Z,68.16
2019-03-19T05:35:08.064Z,67.89
2019-03-19T05:37:35.423Z,67.74
2019-03-19T05:40:04.819Z,67.33
2019-03-19T05:42:31.268Z,67.35
2019-03-19T05:44:57.859Z,67.34
2019-03-19T05:47:24.254Z,67.67
2019-03-19T05:49:50.675Z,67.69
2019-03-19T05:52:17.371Z,67.67
2019-03-19T05:54:44.267Z,67.62
2019-03-19T05:57:11.113Z,67.92
2019-03-19T05:59:39.906Z,68.41
2019-03-19T06:02:05.881Z,68.60
2019-03-19T06:04:32.358Z,67.47
2019-03-19T06:06:58.798Z,66.76
2019-03-19T06:09:25.320Z,66.53
2019-03-19T06:11:52.819Z,66.05
2019-03-19T06:14:19.827Z,65.53
2019-03-19T06:16:46.341Z,64.92
2019-03-19T06:19:13.000Z,64.17
2019-03-19T06:21:39.492Z,63.24
2019-03-19T06:24:06.051Z,62.90
2019-03-19T06:26:32.441Z,62.76
2019-03-19T06:28:59.346Z,62.68
2019-03-19T06:31:25.734Z,63.08
2019-03-19T06:33:52.034Z,63.24
2019-03-19T06:36:18.512Z,62.68
2019-03-19T06:38:45.827Z,62.86
2019-03-19T06:41:12.225Z,62.19
2019-03-19T06:43:38.659Z,62.41
2019-03-19T06:46:05.291Z,62.52
2019-03-19T06:48:31.935Z,62.22
2019-03-19T06:50:58.431Z,61.96
2019-03-19T06:53:27.055Z,61.22
2019-03-19T06:55:53.440Z,60.58
2019-03-19T06:58:19.920Z,60.80
2019-03-19T07:00:46.307Z,60.20
2019-03-19T07:03:14.442Z,59.56
2019-03-19T07:05:40.831Z,58.21
2019-03-19T07:08:07.300Z,57.43
2019-03-19T07:10:33.792Z,57.05
2019-03-19T07:13:00.389Z,56.73
2019-03-19T07:15:27.205Z,56.66
2019-03-19T07:17:53.611Z,55.64
2019-03-19T07:20:25.086Z,56.33
2019-03-19T07:22:52.176Z,56.57
2019-03-19T07:25:18.598Z,55.57
2019-03-19T07:27:45.205Z,55.50
2019-03-19T07:30:19.476Z,54.45
2019-03-19T07:32:46.420Z,55.24
2019-03-19T07:35:12.902Z,54.86
2019-03-19T07:37:40.196Z,55.19
2019-03-19T07:40:15.938Z,54.44
2019-03-19T07:42:42.341Z,54.72
2019-03-19T07:45:21.096Z,54.56
2019-03-19T07:47:47.595Z,53.54
2019-03-19T07:50:22.016Z,53.39
2019-03-19T07:52:48.347Z,53.24
2019-03-19T07:55:14.984Z,52.76
2019-03-19T07:57:41.734Z,52.30
2019-03-19T08:00:20.482Z,51.87
2019-03-19T08:02:47.287Z,52.06
2019-03-19T08:05:13.990Z,51.14
2019-03-19T08:07:40.871Z,51.12
2019-03-19T08:10:12.511Z,51.36
2019-03-19T08:12:39.122Z,51.40
2019-03-19T08:15:10.064Z,50.68
2019-03-19T08:17:36.372Z,49.95
2019-03-19T08:20:09.870Z,49.96
2019-03-19T08:22:36.192Z,49.98
2019-03-19T08:25:06.197Z,49.02
2019-03-19T08:27:33.121Z,47.79
2019-03-19T08:29:59.612Z,47.81
2019-03-19T08:32:25.951Z,47.62
2019-03-19T08:34:52.278Z,47.90
2019-03-19T08:37:18.681Z,48.11
2019-03-19T08:39:45.110Z,48.37
2019-03-19T08:42:11.501Z,49.48
2019-03-19T08:44:38.151Z,49.62
2019-03-19T08:47:04.639Z,49.64
2019-03-19T08:49:30.973Z,50.23
2019-03-19T08:51:57.255Z,49.55
2019-03-19T08:54:23.982Z,50.10
2019-03-19T08:56:50.271Z,48.73
2019-03-19T08:59:16.575Z,47.02
2019-03-19T09:01:43.589Z,47.21
2019-03-19T09:04:10.122Z,48.09
2019-03-19T09:06:36.558Z,47.82
2019-03-19T09:09:06.857Z,48.27
2019-03-19T09:11:33.291Z,48.44
2019-03-19T09:13:59.994Z,48.61
2019-03-19T09:16:26.340Z,48.62
2019-03-19T09:18:53.022Z,49.54
2019-03-19T09:21:19.726Z,50.09
2019-03-19T09:23:46.141Z,49.37
2019-03-19T09:26:12.567Z,50.26
2019-03-19T09:28:38.886Z,50.18
2019-03-19T09:31:05.413Z,50.52
2019-03-19T09:33:32.135Z,50.57
2019-03-19T09:35:58.475Z,50.60
2019-03-19T09:38:25.411Z,48.10
2019-03-19T09:40:51.844Z,47.80
2019-03-19T09:43:18.280Z,48.33
2019-03-19T09:45:44.875Z,47.96
2019-03-19T09:48:11.419Z,47.73
2019-03-19T09:50:37.956Z,47.12
2019-03-19T09:53:04.838Z,45.82
2019-03-19T09:55:31.773Z,46.42
2019-03-19T09:57:58.408Z,46.73
2019-03-19T10:00:25.052Z,46.24
2019-03-19T10:02:51.910Z,47.18
2019-03-19T10:05:18.937Z,47.50
2019-03-19T10:07:46.336Z,46.94
2019-03-19T10:10:22.658Z,46.88
2019-03-19T10:12:50.117Z,46.23
2019-03-19T10:15:17.511Z,46.47
2019-03-19T10:17:44.034Z,46.33
2019-03-19T10:20:18.505Z,46.98
2019-03-19T10:22:45.778Z,46.48
2019-03-19T10:25:13.768Z,47.22
2019-03-19T10:27:40.307Z,46.67
2019-03-19T10:30:14.607Z,46.23
2019-03-19T10:32:41.380Z,46.14
2019-03-19T10:35:08.092Z,46.25
2019-03-19T10:37:34.616Z,45.76
2019-03-19T10:40:01.152Z,46.15
2019-03-19T10:42:27.764Z,45.43
2019-03-19T10:44:54.211Z,45.55
2019-03-19T10:47:20.611Z,45.90
2019-03-19T10:49:47.158Z,45.63
2019-03-19T10:52:14.030Z,45.24
2019-03-19T10:54:40.566Z,45.24
2019-03-19T10:57:07.101Z,45.39
2019-03-19T10:59:33.454Z,45.80
2019-03-19T11:01:59.889Z,46.24
2019-03-19T11:04:26.619Z,46.08
2019-03-19T11:06:53.020Z,46.33
2019-03-19T11:09:19.911Z,46.68
2019-03-19T11:11:46.403Z,46.85
2019-03-19T11:14:12.808Z,47.03
2019-03-19T11:16:39.239Z,47.49
2019-03-19T11:19:05.639Z,47.40
2019-03-19T11:21:32.047Z,47.63
2019-03-19T11:23:58.558Z,47.28
2019-03-19T11:26:25.220Z,47.80
2019-03-19T11:28:51.676Z,47.82
2019-03-19T11:31:18.185Z,47.89
2019-03-19T11:33:44.926Z,47.50
2019-03-19T11:36:12.227Z,46.83
2019-03-19T11:38:38.742Z,46.93
2019-03-19T11:41:07.314Z,46.85
2019-03-19T11:43:33.919Z,46.58
2019-03-19T11:46:00.495Z,46.64
2019-03-19T11:48:26.990Z,46.37
2019-03-19T11:50:53.442Z,46.65
2019-03-19T11:53:19.899Z,46.02
2019-03-19T11:55:46.510Z,46.15
2019-03-19T11:58:13.354Z,46.15
2019-03-19T12:00:39.811Z,45.74
2019-03-19T12:03:13.802Z,45.75
2019-03-19T12:05:35.476Z,46.09
2019-03-19T12:08:02.364Z,46.31
2019-03-19T12:10:28.863Z,46.79
2019-03-19T12:12:55.424Z,46.66
2019-03-19T12:15:22.171Z,46.13
2019-03-19T12:17:49.143Z,46.13
2019-03-19T12:20:15.790Z,46.27
2019-03-19T12:22:42.192Z,45.19
2019-03-19T12:25:11.839Z,44.42
2019-03-19T12:27:38.431Z,44.12
2019-03-19T12:30:22.966Z,44.40
2019-03-19T12:32:48.724Z,44.19
2019-03-19T12:35:16.976Z,45.08
2019-03-19T12:37:43.559Z,44.45
2019-03-19T12:40:18.172Z,44.26
2019-03-19T12:42:44.698Z,43.96
2019-03-19T12:45:22.920Z,44.31
2019-03-19T12:47:49.406Z,44.25
2019-03-19T12:50:23.135Z,44.67
2019-03-19T12:52:49.709Z,44.74
2019-03-19T12:55:16.367Z,45.62
2019-03-19T12:57:42.770Z,44.92
2019-03-19T13:00:33.627Z,44.98
2019-03-19T13:02:52.315Z,43.41
2019-03-19T13:05:21.329Z,43.89
2019-03-19T13:07:47.641Z,44.12
2019-03-19T13:10:20.304Z,43.74
2019-03-19T13:12:46.994Z,44.40
2019-03-19T13:15:19.129Z,44.44
2019-03-19T13:17:45.473Z,44.00
2019-03-19T13:20:19.390Z,44.49
2019-03-19T13:22:46.323Z,43.74
2019-03-19T13:25:21.983Z,44.17
2019-03-19T13:27:48.299Z,44.28
2019-03-19T13:30:30.359Z,44.31
2019-03-19T13:32:56.744Z,44.83
2019-03-19T13:35:23.044Z,44.81
2019-03-19T13:37:49.626Z,44.98
2019-03-19T13:40:17.323Z,45.18
2019-03-19T13:42:44.368Z,44.89
2019-03-19T13:45:20.016Z,44.99
2019-03-19T13:47:46.960Z,44.62
2019-03-19T13:50:15.933Z,45.44
2019-03-19T13:52:42.298Z,44.98
2019-03-19T13:55:13.188Z,44.68
2019-03-19T13:57:39.654Z,44.14
2019-03-19T14:00:13.389Z,45.06
2019-03-19T14:02:40.061Z,44.14
2019-03-19T14:05:09.431Z,44.41
2019-03-19T14:07:35.924Z,44.40
2019-03-19T14:10:07.075Z,44.08
2019-03-19T14:12:33.482Z,43.89
2019-03-19T14:14:59.787Z,44.13
2019-03-19T14:17:26.330Z,44.10
2019-03-19T14:19:52.617Z,43.97
2019-03-19T14:22:19.111Z,44.08
2019-03-19T14:24:45.665Z,44.29
2019-03-19T14:27:12.271Z,43.53
2019-03-19T14:29:38.750Z,43.57
2019-03-19T14:32:05.022Z,42.89
2019-03-19T14:34:31.330Z,43.01
2019-03-19T14:36:57.767Z,43.60
2019-03-19T14:39:24.222Z,43.13
2019-03-19T14:41:50.918Z,43.79
2019-03-19T14:44:17.550Z,43.74
2019-03-19T14:46:43.989Z,44.13
2019-03-19T14:49:10.928Z,44.20
2019-03-19T14:51:37.501Z,44.18
2019-03-19T14:54:04.063Z,45.56
2019-03-19T14:56:30.469Z,45.17
2019-03-19T14:58:59.327Z,45.38
2019-03-19T15:01:25.931Z,45.30
2019-03-19T15:03:52.448Z,45.61
2019-03-19T15:06:18.842Z,45.55
2019-03-19T15:08:45.460Z,45.12
2019-03-19T15:11:12.103Z,44.83
2019-03-19T15:13:38.638Z,45.00
2019-03-19T15:16:05.374Z,44.63
2019-03-19T15:18:31.873Z,44.37
2019-03-19T15:20:58.445Z,43.76
2019-03-19T15:23:24.880Z,43.72
2019-03-19T15:25:51.624Z,43.59
2019-03-19T15:28:18.109Z,43.76
2019-03-19T15:30:44.896Z,43.73
2019-03-19T15:33:11.402Z,44.38
2019-03-19T15:35:38.953Z,44.09
2019-03-19T15:38:05.707Z,44.59
2019-03-19T15:40:32.120Z,44.40
2019-03-19T15:43:00.829Z,44.98
2019-03-19T15:45:29.532Z,45.03
2019-03-19T15:47:55.969Z,45.15
2019-03-19T15:50:22.638Z,45.64
2019-03-19T15:52:49.001Z,46.10
2019-03-19T15:55:15.513Z,45.88
2019-03-19T15:57:42.330Z,45.59
2019-03-19T16:00:18.884Z,45.89
2019-03-19T16:02:45.570Z,46.20
2019-03-19T16:05:13.002Z,45.75
2019-03-19T16:07:39.496Z,45.96
2019-03-19T16:10:13.307Z,46.03
2019-03-19T16:12:40.462Z,46.72
2019-03-19T16:15:13.737Z,46.66
2019-03-19T16:17:40.131Z,46.97
2019-03-19T16:20:11.001Z,47.63
2019-03-19T16:22:38.741Z,47.69
2019-03-19T16:25:07.085Z,48.34
2019-03-19T16:27:33.571Z,48.12
2019-03-19T16:29:59.984Z,47.79
2019-03-19T16:32:26.411Z,47.65
2019-03-19T16:34:52.927Z,48.23
2019-03-19T16:37:19.990Z,48.68
2019-03-19T16:39:46.898Z,48.75
2019-03-19T16:42:13.406Z,48.70
2019-03-19T16:44:39.942Z,48.99
2019-03-19T16:47:06.437Z,49.34
2019-03-19T16:49:32.798Z,49.30
2019-03-19T16:51:59.251Z,49.50
2019-03-19T16:54:25.649Z,49.32
2019-03-19T16:56:52.645Z,49.78
2019-03-19T16:59:19.147Z,49.13
2019-03-19T17:01:45.585Z,49.11
2019-03-19T17:04:12.116Z,49.31
2019-03-19T17:06:38.726Z,49.06
2019-03-19T17:09:05.820Z,49.50
2019-03-19T17:11:32.471Z,49.52
2019-03-19T17:13:58.802Z,49.64
2019-03-19T17:16:25.213Z,49.72
2019-03-19T17:18:51.882Z,49.75
2019-03-19T17:21:18.377Z,49.87
2019-03-19T17:23:44.804Z,50.07
2019-03-19T17:26:11.096Z,50.17
2019-03-19T17:28:37.447Z,50.02
2019-03-19T17:31:04.024Z,50.28
2019-03-19T17:33:30.335Z,50.20
2019-03-19T17:35:56.963Z,50.56
2019-03-19T17:38:23.372Z,50.46
2019-03-19T17:40:50.179Z,50.46
2019-03-19T17:43:16.600Z,50.26
2019-03-19T17:45:43.147Z,50.80
2019-03-19T17:48:16.003Z,50.83
2019-03-19T17:50:42.075Z,50.57
2019-03-19T17:53:08.691Z,50.61
2019-03-19T17:55:35.192Z,50.70
2019-03-19T17:58:01.608Z,50.22
2019-03-19T18:00:32.862Z,50.62
2019-03-19T18:02:59.298Z,50.06
2019-03-19T18:05:25.799Z,50.94
2019-03-19T18:07:52.211Z,50.18
2019-03-19T18:10:18.973Z,50.62
2019-03-19T18:12:45.375Z,50.69
2019-03-19T18:15:14.122Z,50.42
2019-03-19T18:17:40.976Z,50.23
2019-03-19T18:20:17.215Z,50.36
2019-03-19T18:22:43.346Z,50.03
2019-03-19T18:25:14.522Z,49.78
2019-03-19T18:27:41.027Z,50.29
2019-03-19T18:30:16.699Z,50.33
2019-03-19T18:32:43.401Z,50.45
2019-03-19T18:35:10.123Z,49.79
2019-03-19T18:37:36.624Z,49.06
2019-03-19T18:40:08.815Z,49.60
2019-03-19T18:42:35.234Z,49.19
2019-03-19T18:45:02.186Z,48.86
2019-03-19T18:47:28.985Z,49.56
2019-03-19T18:49:55.628Z,49.74
2019-03-19T18:52:21.993Z,49.71
2019-03-19T18:54:48.630Z,49.92
2019-03-19T18:57:15.079Z,49.65
2019-03-19T18:59:41.818Z,49.45
2019-03-19T19:02:08.321Z,49.97
2019-03-19T19:04:34.980Z,49.70
2019-03-19T19:07:01.579Z,49.99
2019-03-19T19:09:28.255Z,49.93
2019-03-19T19:11:54.767Z,49.79
2019-03-19T19:14:21.623Z,49.97
2019-03-19T19:16:48.045Z,49.85
2019-03-19T19:19:14.663Z,50.55
2019-03-19T19:21:41.252Z,50.28
2019-03-19T19:24:07.672Z,50.57
2019-03-19T19:26:34.008Z,50.66
2019-03-19T19:29:00.444Z,50.82
2019-03-19T19:31:26.947Z,50.99
2019-03-19T19:33:53.444Z,50.76
2019-03-19T19:36:19.962Z,50.97
2019-03-19T19:38:46.402Z,50.55
2019-03-19T19:41:12.939Z,50.86
2019-03-19T19:43:39.340Z,50.77
2019-03-19T19:46:05.702Z,50.66
2019-03-19T19:48:32.227Z,50.42
2019-03-19T19:50:58.935Z,50.68
2019-03-19T19:53:25.345Z,50.78
2019-03-19T19:55:51.878Z,50.62
2019-03-19T19:58:18.652Z,50.52
2019-03-19T20:00:45.152Z,50.90
2019-03-19T20:03:12.669Z,50.73
2019-03-19T20:05:39.275Z,51.27
2019-03-19T20:08:05.783Z,51.01
2019-03-19T20:10:32.367Z,51.20
2019-03-19T20:12:58.947Z,51.25
2019-03-19T20:15:25.734Z,51.05
2019-03-19T20:17:52.135Z,51.08
2019-03-19T20:20:28.771Z,51.21
2019-03-19T20:22:55.185Z,51.25
2019-03-19T20:25:21.704Z,51.17
2019-03-19T20:27:48.007Z,51.46
2019-03-19T20:30:19.604Z,51.34
2019-03-19T20:32:45.993Z,51.11
2019-03-19T20:35:12.592Z,50.84
2019-03-19T20:37:39.264Z,51.15
2019-03-19T20:40:12.211Z,50.74
2019-03-19T20:42:38.519Z,50.85
2019-03-19T20:45:09.658Z,50.79
2019-03-19T20:47:36.150Z,50.84
2019-03-19T20:50:07.406Z,51.06
2019-03-19T20:52:33.787Z,51.54
2019-03-19T20:55:00.506Z,51.75
2019-03-19T20:57:26.891Z,51.83
2019-03-19T20:59:53.464Z,51.92
2019-03-19T21:02:19.952Z,52.05
2019-03-19T21:04:46.440Z,52.30
2019-03-19T21:07:13.033Z,52.77
2019-03-19T21:09:39.561Z,53.46
2019-03-19T21:12:06.158Z,53.11
2019-03-19T21:14:32.851Z,53.06
2019-03-19T21:16:59.469Z,53.50
2019-03-19T21:19:25.795Z,53.58
2019-03-19T21:21:52.193Z,53.87
2019-03-19T21:24:18.827Z,53.83
2019-03-19T21:26:45.260Z,54.43
2019-03-19T21:29:11.738Z,55.25
2019-03-19T21:31:38.034Z,56.49
2019-03-19T21:34:04.761Z,57.23
2019-03-19T21:36:31.148Z,57.40
2019-03-19T21:38:57.628Z,57.87
2019-03-19T21:41:24.115Z,58.10
2019-03-19T21:43:50.512Z,58.05
2019-03-19T21:46:17.236Z,58.09
2019-03-19T21:48:43.642Z,58.20
2019-03-19T21:51:10.411Z,58.56
2019-03-19T21:53:36.854Z,59.02
2019-03-19T21:56:03.792Z,59.09
2019-03-19T21:58:30.289Z,59.24
2019-03-19T22:00:56.894Z,59.28
2019-03-19T22:03:23.735Z,59.27
2019-03-19T22:05:50.031Z,59.33
2019-03-19T22:08:16.711Z,59.28
2019-03-19T22:10:43.112Z,59.44
2019-03-19T22:13:09.643Z,58.99
2019-03-19T22:15:36.155Z,59.01
2019-03-19T22:18:02.887Z,59.10
2019-03-19T22:20:29.519Z,59.27
2019-03-19T22:22:55.910Z,59.25
2019-03-19T22:25:22.826Z,59.77
2019-03-19T22:27:49.287Z,60.05
2019-03-19T22:30:20.912Z,60.24
2019-03-19T22:32:47.540Z,59.98
2019-03-19T22:35:14.456Z,59.99
2019-03-19T22:37:40.927Z,59.83
2019-03-19T22:40:13.298Z,59.74
2019-03-19T22:42:39.719Z,60.02
2019-03-19T22:45:13.654Z,60.22
2019-03-19T22:47:40.162Z,60.10
2019-03-19T22:50:17.970Z,60.19
2019-03-19T22:52:44.999Z,60.16
2019-03-19T22:55:12.988Z,60.28
2019-03-19T22:57:39.499Z,60.21
2019-03-19T23:00:37.299Z,60.14
2019-03-19T23:03:05.010Z,60.31
2019-03-19T23:05:31.699Z,60.31
2019-03-19T23:07:58.505Z,60.33
2019-03-19T23:10:25.277Z,60.20
2019-03-19T23:12:51.614Z,60.43
2019-03-19T23:15:18.013Z,60.62
2019-03-19T23:17:44.456Z,60.44
2019-03-19T23:20:13.058Z,60.70
2019-03-19T23:22:39.956Z,60.96
2019-03-19T23:25:07.721Z,61.08
2019-03-19T23:27:34.107Z,61.35
2019-03-19T23:30:00.498Z,61.64
2019-03-19T23:32:26.928Z,61.69
2019-03-19T23:34:53.256Z,61.79
2019-03-19T23:37:19.932Z,61.54
2019-03-19T23:39:46.654Z,61.55
2019-03-19T23:42:13.569Z,61.55
2019-03-19T23:44:40.087Z,61.82
2019-03-19T23:47:06.374Z,61.70
2019-03-19T23:49:32.903Z,61.85
2019-03-19T23:51:59.451Z,61.92
2019-03-19T23:54:26.044Z,61.65
2019-03-19T23:56:52.832Z,62.25
2019-03-19T23:59:19.218Z,62.07
